map of SYZ home
SYZ - Airport
Location
City:  Shiraz, Fars, Iran
Name:Shiraz International Airport
Old (Alt.):Shahid Dastghaib International Airport
ICAO:OISS
IATA:SYZ

Details
Type:Airport (Aerodrome, Airfield)
Use:Public/Civil, Military, International (customs port of entry)
Latitude:2932'21"N (29.539242)
Longitude:5235'23"E (52.589786)
Datum:WGS 1984
Elevation:4920 ft (1500 m)
Variation:3.21E (WMM2015 magnetic declination)
0.05 annual change
Runways:2
Longest:14345 × 148 ft (4372 × 45 m), paved

Time
Time Zone:UTC+3:30 (DST+4:30)
Local Time:

Weather
METAR:OISS 132200Z 00000KT CAVOK 02/M05 Q1025 A3028
TAF:OISS 131730Z 1318/1424 15004MPS 7000 NSC

Related Locations
Nearby:
Farthest:GMR: 11796 mi / 18985 km
Mangareva [Totegegie], Gambier Islands, PF

Find:

   beyond  
but within

Other Information
Maps:
NOTAMs:
Links:
Sources:

  
  • flag of Iran
  

Sectional Chart

Flight Planning
at skyvector.com

Satellite Image

Google Maps Satellite view

 

Copyright © 2004-2018 Karl L. Swartz. All rights reserved.
The Great Circle Mapper name and logo are trademarks of the Great Circle Mapper.
All other trademarks mentioned herein belong to their respective owners.
Please see credits for attibutions and further copyright information.

  Follow gcmap on Facebook Follow gcmap on Twitter Follow gcmap on Google+ GCmap on LinkedIn

hCard Microformat

Geo Microformat